X  Tanca Dades meteorològiques de l'aviació METAR     LGRX Patras Araxos Agamemnon Airport
Temperatura
77°F Temperatura
55°F Rosada
47% Humitat



Vent
5 MPH
8 KM/H
2 M/S
4 NUS



360°
N
Condicions actuals

Sense núvols Sense núvols
Pressió 1022.01 (hPa) - 30.18 (inHg)
Visibilitat 6 (milla) - 9.7 (km)
Aeroport
Codi aeroport LGRX

Ubicació: Patras Araxos Agamemnon Airport
Distància: 108 (mi)

Metar:
LGRX 130920Z 36004KT CAVOK 25/13 Q1022

Temps: 13-04-2024 12:20 EEST